Time;durP1;ratioP1;P1;durP2;ratioP2;P2;SDS_P1;SDS_P2;PMS_P1;PMS_P2;Temp;Humidity;BMP_temperature;BMP_pressure;BME280_temperature;BME280_humidity;BME280_pressure;Samples;Min_cycle;Max_cycle;Signal;HPM_P1;HPM_P2
2022/06/17 00:00:21;;;;;;;5.45;3.38;;;17.60;93.10;;;;;;4967061;28;20069;-49
2022/06/17 00:02:46;;;;;;;5.85;4.15;;;17.50;93.30;;;;;;4966835;28;20046;-46
2022/06/17 00:05:12;;;;;;;9.38;4.38;;;17.40;93.40;;;;;;4963900;28;20056;-46
2022/06/17 00:07:40;;;;;;;6.50;3.40;;;17.40;93.70;;;;;;4956590;28;20035;-46
2022/06/17 00:10:30;;;;;;;7.03;3.80;;;17.30;93.90;;;;;;4942625;28;20102;-46
2022/06/17 00:12:56;;;;;;;6.70;4.18;;;17.40;93.90;;;;;;4960204;28;20134;-46
2022/06/17 00:15:22;;;;;;;6.22;3.63;;;17.30;93.70;;;;;;4957839;28;20154;-44
2022/06/17 00:17:54;;;;;;;12.27;4.22;;;17.40;93.70;;;;;;4961569;28;20047;-49
2022/06/17 00:20:23;;;;;;;7.18;4.00;;;17.40;93.80;;;;;;4971292;28;20053;-43
2022/06/17 00:22:50;;;;;;;4.88;3.80;;;17.30;93.90;;;;;;4968702;28;20556;-48
2022/06/17 00:25:15;;;;;;;7.90;4.10;;;17.30;93.80;;;;;;4973609;28;20046;-43
2022/06/17 00:27:41;;;;;;;7.95;4.78;;;17.40;93.80;;;;;;4969982;28;20030;-49
2022/06/17 00:30:19;;;;;;;7.28;4.00;;;17.30;93.50;;;;;;4969812;28;20066;-48
2022/06/17 00:32:44;;;;;;;7.22;4.20;;;17.30;93.50;;;;;;4969000;28;20538;-49
2022/06/17 00:35:12;;;;;;;5.75;3.60;;;17.30;93.40;;;;;;4964160;28;20110;-45
2022/06/17 00:37:39;;;;;;;7.70;4.20;;;17.30;93.50;;;;;;4983726;28;20042;-49
2022/06/17 00:40:19;;;;;;;6.30;3.67;;;17.30;93.60;;;;;;4959673;28;20046;-47
2022/06/17 00:42:46;;;;;;;6.05;3.45;;;17.30;93.90;;;;;;4964301;28;20123;-47
2022/06/17 00:45:27;;;;;;;5.45;3.50;;;17.30;93.90;;;;;;4975122;28;20089;-50
2022/06/17 00:48:13;;;;;;;5.38;3.92;;;17.20;94.30;;;;;;4950050;28;20047;-45
2022/06/17 00:50:43;;;;;;;5.85;4.32;;;17.10;94.30;;;;;;4969396;28;20051;-50
2022/06/17 00:53:18;;;;;;;8.25;4.35;;;17.10;94.20;;;;;;4960849;28;20122;-43
2022/06/17 00:55:54;;;;;;;5.88;4.28;;;17.10;94.10;;;;;;4976188;28;20065;-49
2022/06/17 00:58:22;;;;;;;5.15;3.70;;;17.10;93.90;;;;;;4968204;28;20101;-48
2022/06/17 01:00:52;;;;;;;7.20;4.43;;;17.10;93.90;;;;;;4971307;28;20039;-47
2022/06/17 01:03:29;;;;;;;9.30;4.30;;;17.10;93.90;;;;;;4966138;28;20081;-50
2022/06/17 01:06:01;;;;;;;5.88;3.92;;;17.10;94.00;;;;;;4965890;28;20078;-50
2022/06/17 01:11:15;;;;;;;6.38;3.72;;;17.10;94.80;;;;;;4973333;28;19977;-49
2022/06/17 01:13:44;;;;;;;5.47;4.32;;;17.10;93.80;;;;;;4976805;28;20461;-47
2022/06/17 01:16:09;;;;;;;5.63;4.30;;;17.10;93.80;;;;;;4965576;28;20149;-48
2022/06/17 01:18:40;;;;;;;7.88;5.50;;;17.10;93.90;;;;;;4962565;28;20034;-48
2022/06/17 01:21:28;;;;;;;5.68;4.20;;;17.10;94.00;;;;;;4973623;28;20071;-50
2022/06/17 01:23:54;;;;;;;8.77;5.28;;;17.00;94.00;;;;;;4966706;28;20592;-49
2022/06/17 01:26:20;;;;;;;7.95;5.15;;;17.00;93.80;;;;;;4978732;28;20145;-49
2022/06/17 01:28:46;;;;;;;7.00;5.22;;;17.00;93.80;;;;;;4970101;28;20121;-49
2022/06/17 01:31:12;;;;;;;8.95;4.97;;;17.00;93.80;;;;;;4966669;28;20525;-47
2022/06/17 01:33:41;;;;;;;9.60;5.45;;;16.90;93.90;;;;;;4965480;28;20456;-46
2022/06/17 01:36:10;;;;;;;7.43;4.38;;;16.90;93.90;;;;;;4969183;28;20038;-46
2022/06/17 01:38:38;;;;;;;8.50;6.00;;;16.90;94.10;;;;;;4970012;28;20532;-46
2022/06/17 01:41:05;;;;;;;8.45;5.18;;;16.90;94.20;;;;;;4967691;28;20065;-49
2022/06/17 01:44:08;;;;;;;8.38;5.55;;;16.90;94.30;;;;;;4964903;28;20106;-48
2022/06/17 01:46:37;;;;;;;9.25;5.10;;;16.80;94.40;;;;;;4959907;28;20543;-45
2022/06/17 01:49:09;;;;;;;11.88;5.90;;;16.80;94.60;;;;;;4967285;28;20381;-46
2022/06/17 01:51:38;;;;;;;7.85;5.72;;;16.80;94.20;;;;;;4968374;28;20099;-46
2022/06/17 01:54:10;;;;;;;6.72;4.97;;;16.80;94.30;;;;;;4958124;28;20095;-48
2022/06/17 01:56:38;;;;;;;12.93;6.80;;;16.80;94.50;;;;;;4966365;28;20615;-49
2022/06/17 01:59:10;;;;;;;7.85;6.50;;;16.80;94.40;;;;;;4968959;28;20039;-48
2022/06/17 02:01:40;;;;;;;8.55;6.13;;;16.70;94.40;;;;;;4967590;28;20485;-50
2022/06/17 02:04:14;;;;;;;11.63;5.53;;;16.70;94.50;;;;;;4969246;28;20051;-50
2022/06/17 02:06:51;;;;;;;8.98;6.22;;;16.60;94.60;;;;;;4966197;28;20050;-50
2022/06/17 02:09:18;;;;;;;9.65;6.57;;;16.70;94.80;;;;;;4963914;28;20097;-50
2022/06/17 02:11:44;;;;;;;7.63;6.05;;;16.60;94.70;;;;;;4965903;28;20047;-45
2022/06/17 02:14:10;;;;;;;9.07;6.60;;;16.60;94.70;;;;;;4973120;28;20067;-47
2022/06/17 02:16:38;;;;;;;8.88;6.57;;;16.60;94.80;;;;;;4964923;28;20035;-49
2022/06/17 02:19:04;;;;;;;9.70;6.55;;;16.50;94.80;;;;;;4973927;28;20038;-47
2022/06/17 02:21:38;;;;;;;9.27;6.18;;;16.50;94.90;;;;;;4967764;28;20130;-44
2022/06/17 02:24:05;;;;;;;9.68;6.60;;;16.40;95.10;;;;;;4966412;28;20487;-45
2022/06/17 02:26:36;;;;;;;8.55;5.90;;;16.40;95.20;;;;;;4959185;28;20066;-48
2022/06/17 02:29:06;;;;;;;8.27;6.15;;;16.40;95.60;;;;;;4966719;28;20046;-50
2022/06/17 02:31:33;;;;;;;10.07;6.93;;;16.40;95.60;;;;;;4980671;28;20535;-46
2022/06/17 02:33:59;;;;;;;8.95;6.50;;;16.40;95.30;;;;;;4968839;28;20042;-45
2022/06/17 02:36:33;;;;;;;7.90;6.13;;;16.40;95.40;;;;;;4965334;28;20045;-49
2022/06/17 02:39:00;;;;;;;7.07;5.32;;;16.40;95.50;;;;;;4961925;28;20481;-50
2022/06/17 02:41:28;;;;;;;7.50;5.32;;;16.40;95.40;;;;;;4961541;28;20066;-45
2022/06/17 02:44:03;;;;;;;7.90;5.80;;;16.40;95.60;;;;;;4964980;28;20524;-46
2022/06/17 02:46:32;;;;;;;11.70;6.80;;;16.40;95.60;;;;;;4966005;28;20042;-47
2022/06/17 02:49:01;;;;;;;11.05;7.18;;;16.40;95.60;;;;;;4961022;28;20051;-51
2022/06/17 02:51:31;;;;;;;9.98;7.20;;;16.40;95.70;;;;;;4966697;28;20065;-45
2022/06/17 02:53:58;;;;;;;10.00;7.13;;;16.40;95.70;;;;;;4964511;28;20098;-48
2022/06/17 02:56:27;;;;;;;10.27;7.07;;;16.40;95.60;;;;;;4967146;28;20039;-46
2022/06/17 02:59:23;;;;;;;10.38;6.68;;;16.40;95.60;;;;;;4969065;28;20038;-45
2022/06/17 03:01:51;;;;;;;10.63;6.93;;;16.40;95.70;;;;;;4971317;28;20077;-48
2022/06/17 03:04:25;;;;;;;9.40;6.97;;;16.30;95.50;;;;;;4960372;28;20113;-49
2022/06/17 03:06:51;;;;;;;9.32;6.50;;;16.40;95.50;;;;;;4941731;28;20385;-50
2022/06/17 03:09:29;;;;;;;9.50;6.35;;;16.30;95.60;;;;;;4967154;28;20050;-50
2022/06/17 03:11:57;;;;;;;10.82;6.45;;;16.40;95.70;;;;;;4966804;28;20056;-46
2022/06/17 03:14:28;;;;;;;7.85;6.45;;;16.30;95.60;;;;;;4967811;28;20512;-50
2022/06/17 03:16:57;;;;;;;9.00;6.28;;;16.30;95.70;;;;;;4963785;28;20038;-45
2022/06/17 03:19:26;;;;;;;9.93;7.47;;;16.30;95.60;;;;;;4965082;28;20057;-49
2022/06/17 03:21:52;;;;;;;8.57;6.78;;;16.30;95.60;;;;;;4966509;28;20045;-48
2022/06/17 03:24:45;;;;;;;8.15;6.90;;;16.30;95.70;;;;;;4965838;28;20034;-46
2022/06/17 03:27:34;;;;;;;11.02;7.60;;;16.20;95.80;;;;;;4968449;28;20043;-48
2022/06/17 03:30:02;;;;;;;9.40;6.95;;;16.20;96.00;;;;;;4964940;28;20150;-46
2022/06/17 03:32:38;;;;;;;13.25;7.18;;;16.10;96.00;;;;;;4965419;28;20467;-45
2022/06/17 03:35:05;;;;;;;10.20;6.72;;;16.10;96.20;;;;;;4964291;28;20403;-43
2022/06/17 03:37:38;;;;;;;9.10;7.18;;;16.00;96.20;;;;;;4966411;28;20500;-47
2022/06/17 03:40:16;;;;;;;8.93;6.10;;;16.10;96.40;;;;;;4950411;28;20122;-46
2022/06/17 03:42:52;;;;;;;10.48;6.97;;;16.00;96.40;;;;;;4945815;28;20062;-46
2022/06/17 03:45:43;;;;;;;9.45;7.13;;;16.00;96.50;;;;;;4970579;28;20065;-46
2022/06/17 03:48:19;;;;;;;7.93;6.25;;;16.00;96.60;;;;;;4965275;28;20504;-43
2022/06/17 03:50:47;;;;;;;8.85;6.32;;;16.00;96.50;;;;;;4968614;28;20393;-44
2022/06/17 03:53:22;;;;;;;9.57;6.32;;;16.10;96.90;;;;;;4981706;28;20039;-49
2022/06/17 03:55:48;;;;;;;9.90;6.38;;;16.10;96.60;;;;;;4972152;28;20477;-49
2022/06/17 03:58:17;;;;;;;10.48;6.53;;;16.10;96.50;;;;;;4969898;28;20109;-43
2022/06/17 04:00:56;;;;;;;9.07;6.10;;;16.20;96.40;;;;;;4973456;28;20043;-47
2022/06/17 04:03:27;;;;;;;7.05;5.70;;;16.20;96.30;;;;;;4969084;28;20034;-48
2022/06/17 04:05:58;;;;;;;9.73;6.90;;;16.20;96.30;;;;;;4964916;28;20038;-47
2022/06/17 04:08:23;;;;;;;9.77;6.68;;;16.30;96.20;;;;;;4970116;28;20034;-47
2022/06/17 04:10:49;;;;;;;9.57;6.72;;;16.30;96.00;;;;;;4964752;28;20050;-48
2022/06/17 04:13:19;;;;;;;9.05;6.75;;;16.40;95.90;;;;;;4953804;28;20070;-46
2022/06/17 04:15:57;;;;;;;10.68;6.47;;;16.40;95.80;;;;;;4970019;28;20567;-48
2022/06/17 04:18:23;;;;;;;8.82;6.93;;;16.50;95.80;;;;;;4948485;28;20053;-47
2022/06/17 04:20:55;;;;;;;14.27;7.10;;;16.50;95.60;;;;;;4970484;28;20149;-50
2022/06/17 04:23:24;;;;;;;9.43;6.30;;;16.50;95.60;;;;;;4969210;28;20035;-48
2022/06/17 04:25:52;;;;;;;7.65;6.28;;;16.60;95.60;;;;;;4972586;28;20152;-47
2022/06/17 04:28:36;;;;;;;9.73;7.30;;;16.60;95.50;;;;;;4962442;28;20364;-48
2022/06/17 04:31:06;;;;;;;10.18;6.47;;;16.60;95.70;;;;;;4973629;28;20056;-50
2022/06/17 04:33:59;;;;;;;8.50;6.75;;;16.60;95.60;;;;;;4971657;28;20046;-50
2022/06/17 04:36:31;;;;;;;9.32;6.63;;;16.70;95.80;;;;;;4968383;28;20042;-47
2022/06/17 04:39:16;;;;;;;8.90;6.82;;;16.70;95.60;;;;;;4947285;28;20500;-55
2022/06/17 04:41:43;;;;;;;7.25;6.13;;;16.70;95.60;;;;;;4957258;28;20051;-51
2022/06/17 04:44:13;;;;;;;9.90;6.28;;;16.80;95.50;;;;;;4948304;28;20135;-49
2022/06/17 04:46:41;;;;;;;9.25;6.60;;;16.80;95.30;;;;;;4970477;28;20645;-44
2022/06/17 04:49:17;;;;;;;10.60;6.57;;;16.80;95.20;;;;;;4970995;28;20050;-50
2022/06/17 04:51:43;;;;;;;8.93;6.30;;;16.90;95.60;;;;;;4969166;28;20039;-43
2022/06/17 04:54:11;;;;;;;9.48;6.22;;;16.90;94.90;;;;;;4965517;28;20059;-50
2022/06/17 04:56:45;;;;;;;8.35;6.72;;;17.00;94.90;;;;;;4963058;28;20070;-49
2022/06/17 04:59:18;;;;;;;9.70;6.38;;;17.00;94.80;;;;;;4969266;28;20062;-48
2022/06/17 05:01:46;;;;;;;9.82;6.38;;;17.10;94.50;;;;;;4970090;28;20046;-47
2022/06/17 05:04:12;;;;;;;9.25;6.95;;;17.10;94.40;;;;;;4968637;28;20496;-49
2022/06/17 05:06:37;;;;;;;10.68;6.32;;;17.10;94.30;;;;;;4972785;28;20042;-47
2022/06/17 05:09:25;;;;;;;12.38;6.43;;;17.20;94.00;;;;;;4968310;28;20141;-50
2022/06/17 05:12:14;;;;;;;12.77;6.57;;;17.20;94.10;;;;;;4965025;28;20075;-42
2022/06/17 05:14:51;;;;;;;8.85;6.07;;;17.20;93.90;;;;;;4957342;28;20138;-46
2022/06/17 05:17:18;;;;;;;8.90;6.28;;;17.30;93.90;;;;;;4944528;28;20102;-51
2022/06/17 05:19:43;;;;;;;8.25;6.70;;;17.30;93.80;;;;;;4932073;28;20122;-45
2022/06/17 05:22:19;;;;;;;10.85;6.03;;;17.40;94.00;;;;;;4949061;28;20130;-47
2022/06/17 05:24:45;;;;;;;7.85;6.50;;;17.40;94.10;;;;;;4950858;28;20051;-46
2022/06/17 05:27:11;;;;;;;11.98;7.25;;;17.40;94.10;;;;;;4955854;28;20124;-50
2022/06/17 05:29:36;;;;;;;11.65;6.88;;;17.50;94.10;;;;;;4949192;28;20070;-48
2022/06/17 05:32:03;;;;;;;10.77;6.70;;;17.50;94.00;;;;;;4948915;28;20035;-47
2022/06/17 05:34:28;;;;;;;9.38;5.75;;;17.50;94.00;;;;;;4959241;28;20118;-50
2022/06/17 05:36:56;;;;;;;9.05;6.47;;;17.50;94.00;;;;;;4951328;29;20130;-46
2022/06/17 05:39:23;;;;;;;13.95;8.00;;;17.60;94.10;;;;;;4948554;28;20034;-46
2022/06/17 05:41:48;;;;;;;9.98;6.60;;;17.60;94.10;;;;;;4950755;28;20047;-48
2022/06/17 05:44:15;;;;;;;10.02;7.22;;;17.60;94.20;;;;;;4947473;28;20046;-46
2022/06/17 05:46:43;;;;;;;10.43;6.88;;;17.60;94.00;;;;;;4931454;29;20055;-45
2022/06/17 05:49:09;;;;;;;10.52;7.70;;;17.60;94.00;;;;;;4946903;28;20106;-46
2022/06/17 05:51:34;;;;;;;11.85;7.20;;;17.70;93.90;;;;;;4947869;28;20803;-48
2022/06/17 05:54:01;;;;;;;8.93;6.97;;;17.70;93.90;;;;;;4949980;28;20071;-49
2022/06/17 05:56:27;;;;;;;8.25;6.20;;;17.70;93.90;;;;;;4965522;28;20047;-48
2022/06/17 05:58:53;;;;;;;11.18;7.13;;;17.80;93.70;;;;;;4943590;28;20035;-50
2022/06/17 06:01:18;;;;;;;8.27;6.50;;;17.80;93.80;;;;;;4948143;28;20039;-51
2022/06/17 06:03:45;;;;;;;11.27;6.65;;;17.90;93.80;;;;;;4946764;29;20082;-48
2022/06/17 06:06:11;;;;;;;10.43;6.95;;;18.00;93.50;;;;;;4959431;28;20510;-49
2022/06/17 06:08:37;;;;;;;10.60;7.20;;;18.00;93.30;;;;;;4944151;28;20047;-51
2022/06/17 06:11:04;;;;;;;10.10;6.43;;;18.10;93.30;;;;;;4948855;28;20043;-49
2022/06/17 06:13:30;;;;;;;7.40;6.32;;;18.10;93.20;;;;;;4949847;28;20054;-48
2022/06/17 06:15:58;;;;;;;11.85;7.43;;;18.20;93.30;;;;;;4960548;28;20059;-49
2022/06/17 06:18:30;;;;;;;8.38;6.38;;;18.30;93.10;;;;;;4961195;28;20137;-50
2022/06/17 06:20:56;;;;;;;8.95;6.70;;;18.40;92.90;;;;;;4946563;28;20377;-49
2022/06/17 06:23:22;;;;;;;11.65;6.22;;;18.50;92.60;;;;;;4967060;28;20097;-46
2022/06/17 06:25:48;;;;;;;10.63;5.80;;;18.60;92.50;;;;;;4964241;28;20035;-49
2022/06/17 06:28:22;;;;;;;10.07;5.40;;;18.70;92.40;;;;;;4970645;28;20111;-49
2022/06/17 06:30:54;;;;;;;10.07;6.82;;;18.80;92.40;;;;;;4970442;28;20087;-50
2022/06/17 06:33:20;;;;;;;11.05;7.28;;;18.90;92.20;;;;;;4969380;28;20857;-50
2022/06/17 06:35:46;;;;;;;10.25;6.88;;;18.90;91.90;;;;;;4969335;28;20058;-47
2022/06/17 06:38:12;;;;;;;10.10;6.38;;;19.00;91.80;;;;;;4964900;28;20038;-47
2022/06/17 06:40:39;;;;;;;11.77;6.75;;;19.10;91.40;;;;;;4965148;28;20039;-50
2022/06/17 06:43:15;;;;;;;11.82;6.75;;;19.30;91.00;;;;;;4964864;28;20117;-52
2022/06/17 06:45:42;;;;;;;11.05;7.00;;;19.40;90.70;;;;;;4965956;28;20162;-50
2022/06/17 06:48:10;;;;;;;8.65;6.40;;;19.50;90.10;;;;;;4966299;28;20504;-46
2022/06/17 06:50:40;;;;;;;10.25;6.90;;;19.60;89.40;;;;;;4966930;28;20047;-49
2022/06/17 06:53:06;;;;;;;12.70;7.22;;;19.60;89.40;;;;;;4964140;28;20050;-46
2022/06/17 06:55:34;;;;;;;11.13;6.43;;;19.60;88.80;;;;;;4962789;28;20433;-48
2022/06/17 06:58:03;;;;;;;13.18;5.93;;;19.60;88.40;;;;;;4963628;28;20038;-45
2022/06/17 07:00:36;;;;;;;11.95;6.35;;;19.70;87.70;;;;;;4947896;28;20035;-47
2022/06/17 07:03:03;;;;;;;11.10;5.63;;;19.70;87.10;;;;;;4973818;28;20058;-48
2022/06/17 07:05:29;;;;;;;12.80;6.07;;;19.90;86.40;;;;;;4965931;28;20480;-49
2022/06/17 07:07:55;;;;;;;10.98;5.88;;;20.10;85.50;;;;;;4960905;28;20156;-50
2022/06/17 07:10:28;;;;;;;9.77;5.18;;;20.20;84.90;;;;;;4963325;28;20526;-48
2022/06/17 07:12:54;;;;;;;9.57;5.22;;;20.20;83.40;;;;;;4955215;28;20051;-45
2022/06/17 07:15:21;;;;;;;9.18;5.93;;;20.30;82.90;;;;;;4966252;28;20062;-49
2022/06/17 07:18:02;;;;;;;7.32;5.40;;;20.40;82.70;;;;;;4962914;28;20046;-49
2022/06/17 07:20:36;;;;;;;11.30;5.30;;;20.40;80.80;;;;;;4966169;28;20065;-47
2022/06/17 07:23:07;;;;;;;8.45;5.28;;;20.40;81.80;;;;;;4953136;28;20042;-46
2022/06/17 07:25:34;;;;;;;7.57;4.47;;;20.40;81.80;;;;;;4961517;28;20042;-48
2022/06/17 07:28:00;;;;;;;10.10;4.80;;;20.50;81.00;;;;;;4963690;28;20500;-50
2022/06/17 07:30:28;;;;;;;8.20;4.50;;;20.60;79.20;;;;;;4964295;28;20476;-46
2022/06/17 07:32:54;;;;;;;9.85;4.57;;;20.70;77.30;;;;;;4961232;28;20050;-48
2022/06/17 07:35:20;;;;;;;8.35;4.13;;;20.80;77.10;;;;;;4965062;28;20547;-51
2022/06/17 07:40:31;;;;;;;8.23;4.00;;;20.90;76.30;;;;;;4969394;28;20475;-51
2022/06/17 07:42:57;;;;;;;7.32;3.90;;;21.00;75.50;;;;;;4965654;28;20050;-43
2022/06/17 07:45:24;;;;;;;6.63;4.13;;;21.10;75.50;;;;;;4961244;28;20781;-49
2022/06/17 07:47:51;;;;;;;6.80;4.00;;;21.10;75.40;;;;;;4961320;28;20053;-50
2022/06/17 07:50:37;;;;;;;6.25;3.95;;;21.10;75.50;;;;;;4960007;28;20558;-45
2022/06/17 07:53:03;;;;;;;6.45;3.53;;;21.10;75.30;;;;;;4952510;28;20468;-47
2022/06/17 07:55:29;;;;;;;6.22;3.78;;;21.10;75.80;;;;;;4964089;28;20141;-50
2022/06/17 07:57:55;;;;;;;6.97;3.80;;;21.20;76.10;;;;;;4955790;28;20122;-47
2022/06/17 08:00:20;;;;;;;6.45;3.80;;;21.20;75.90;;;;;;4976956;28;20043;-49
2022/06/17 08:02:46;;;;;;;8.15;4.20;;;21.20;75.30;;;;;;4955501;28;20054;-43
2022/06/17 08:05:12;;;;;;;8.13;4.38;;;21.20;75.50;;;;;;4957030;28;20434;-48
2022/06/17 08:07:38;;;;;;;6.85;4.32;;;21.30;76.20;;;;;;4969028;28;20441;-50
2022/06/17 08:10:04;;;;;;;9.38;4.00;;;21.40;74.80;;;;;;4957325;28;20050;-50
2022/06/17 08:12:30;;;;;;;9.55;4.25;;;21.50;73.60;;;;;;4956841;28;20055;-51
2022/06/17 08:14:56;;;;;;;6.95;4.07;;;21.60;72.20;;;;;;4956585;28;20047;-50
2022/06/17 08:17:23;;;;;;;7.88;3.50;;;21.70;70.80;;;;;;4960789;28;20110;-48
2022/06/17 08:19:52;;;;;;;7.15;4.45;;;21.90;71.10;;;;;;4957308;28;20053;-49
2022/06/17 08:22:19;;;;;;;8.75;4.40;;;22.10;69.10;;;;;;4959978;28;20074;-48
2022/06/17 08:24:45;;;;;;;7.47;4.85;;;22.20;66.30;;;;;;4944944;28;20047;-44
2022/06/17 08:27:11;;;;;;;7.10;3.97;;;22.30;66.70;;;;;;4957611;28;20090;-46
2022/06/17 08:29:36;;;;;;;7.97;4.28;;;22.50;66.70;;;;;;4961345;28;20038;-46
2022/06/17 08:34:47;;;;;;;5.80;3.45;;;22.90;61.80;;;;;;4948785;28;20039;-48
2022/06/17 08:37:14;;;;;;;6.60;3.33;;;22.90;61.80;;;;;;4961236;28;20035;-47
2022/06/17 08:39:42;;;;;;;6.85;3.88;;;22.90;60.10;;;;;;4956902;28;20039;-48
2022/06/17 08:42:08;;;;;;;6.10;3.80;;;22.80;60.40;;;;;;4960936;28;20046;-48
2022/06/17 08:44:55;;;;;;;5.18;3.33;;;22.80;61.40;;;;;;4956752;28;20106;-49
2022/06/17 08:47:42;;;;;;;10.05;3.47;;;22.80;61.70;;;;;;4965471;28;20511;-45
2022/06/17 08:50:14;;;;;;;6.20;3.30;;;22.80;61.50;;;;;;4962924;28;20050;-47
2022/06/17 08:53:43;;;;;;;8.35;3.67;;;23.00;60.40;;;;;;4956749;28;20660;-44
2022/06/17 08:56:21;;;;;;;7.13;3.60;;;23.10;59.60;;;;;;4907191;29;20438;-47
2022/06/17 08:59:13;;;;;;;9.35;3.67;;;23.30;59.10;;;;;;4911631;29;20546;-48
2022/06/17 09:01:44;;;;;;;;;;;23.30;57.50;;;;;;4953541;28;20560;-48
2022/06/17 09:04:32;;;;;;;7.35;3.05;;;23.30;56.10;;;;;;4965257;28;20363;-53
2022/06/17 09:07:18;;;;;;;6.63;3.10;;;23.40;59.00;;;;;;4964508;28;20397;-48
2022/06/17 09:09:52;;;;;;;8.32;3.00;;;23.50;58.70;;;;;;4967775;28;20043;-50
2022/06/17 09:12:41;;;;;;;5.55;2.85;;;23.70;57.10;;;;;;4965855;28;20524;-47
2022/06/17 09:15:35;;;;;;;5.50;2.60;;;23.80;54.60;;;;;;4964611;28;20055;-50
2022/06/17 09:18:10;;;;;;;6.47;3.15;;;23.90;55.40;;;;;;4955960;28;20979;-47
2022/06/17 09:20:42;;;;;;;4.57;2.83;;;24.10;55.10;;;;;;4964782;28;20031;-49
2022/06/17 09:23:09;;;;;;;;;;;24.20;53.80;;;;;;4966013;28;20080;-45
2022/06/17 09:25:40;;;;;;;10.57;3.35;;;24.20;52.10;;;;;;4964054;28;20384;-48
2022/06/17 09:28:12;;;;;;;7.75;2.35;;;24.20;51.60;;;;;;4967104;28;20085;-50
2022/06/17 09:30:46;;;;;;;5.15;2.28;;;24.20;52.20;;;;;;4966699;28;20102;-48
2022/06/17 09:33:16;;;;;;;5.55;2.88;;;24.20;52.30;;;;;;4967812;28;20053;-50
2022/06/17 09:35:49;;;;;;;3.28;1.90;;;24.20;53.20;;;;;;4967576;28;20134;-44
2022/06/17 09:38:39;;;;;;;6.50;2.53;;;24.30;51.60;;;;;;4966658;28;20039;-49
2022/06/17 09:41:11;;;;;;;6.78;2.58;;;24.40;51.80;;;;;;4969124;28;20047;-48
2022/06/17 09:43:56;;;;;;;4.43;2.47;;;24.50;51.80;;;;;;4969322;28;20050;-47
2022/06/17 09:46:34;;;;;;;3.42;2.28;;;24.60;50.90;;;;;;4968510;28;20050;-49
2022/06/17 09:49:23;;;;;;;5.70;2.30;;;24.80;51.40;;;;;;4959797;28;20085;-49
2022/06/17 09:52:01;;;;;;;4.07;2.55;;;24.90;49.50;;;;;;4962160;28;20038;-46
2022/06/17 09:54:29;;;;;;;5.10;2.17;;;24.90;49.30;;;;;;4966717;28;20039;-45
2022/06/17 09:57:17;;;;;;;6.43;2.50;;;24.90;49.70;;;;;;4968545;28;20117;-46
2022/06/17 09:59:48;;;;;;;7.43;3.10;;;25.00;48.80;;;;;;4959195;28;20567;-47
2022/06/17 10:02:43;;;;;;;7.80;3.00;;;24.90;48.90;;;;;;4965041;28;20050;-45
2022/06/17 10:05:40;;;;;;;4.80;3.00;;;24.90;50.00;;;;;;4966929;28;20488;-46
2022/06/17 10:08:32;;;;;;;7.25;2.70;;;25.10;49.30;;;;;;4945423;28;21738;-47
2022/06/17 10:11:29;;;;;;;7.15;3.08;;;25.20;48.40;;;;;;4966515;28;20504;-48
2022/06/17 10:14:17;;;;;;;6.20;2.80;;;25.20;49.00;;;;;;4966585;28;20412;-50
2022/06/17 10:20:06;;;;;;;6.70;2.50;;;25.40;48.70;;;;;;4961660;28;20042;-46
2022/06/17 10:22:47;;;;;;;6.07;3.20;;;25.30;48.80;;;;;;4965423;28;20127;-44
2022/06/17 10:25:22;;;;;;;6.57;3.08;;;25.30;48.50;;;;;;4969865;28;20461;-50
2022/06/17 10:28:19;;;;;;;6.35;3.33;;;25.30;48.50;;;;;;4965910;28;20093;-48
2022/06/17 10:31:05;;;;;;;6.72;3.15;;;25.30;49.30;;;;;;4966241;28;20039;-45
2022/06/17 10:33:33;;;;;;;15.52;3.63;;;25.30;49.20;;;;;;4964505;28;20493;-45
2022/06/17 10:36:00;;;;;;;5.13;3.13;;;25.40;49.00;;;;;;4968284;28;20130;-44
2022/06/17 10:38:32;;;;;;;8.15;3.70;;;25.50;49.00;;;;;;4959899;28;20515;-47
2022/06/17 10:40:59;;;;;;;7.25;3.30;;;25.60;49.70;;;;;;4960576;28;20471;-47
2022/06/17 10:43:36;;;;;;;6.13;3.03;;;25.70;48.70;;;;;;4967673;28;20469;-49
2022/06/17 10:46:03;;;;;;;6.03;2.40;;;25.90;48.30;;;;;;4964326;28;20030;-49
2022/06/17 10:48:40;;;;;;;4.97;3.05;;;26.10;48.50;;;;;;4954314;28;20134;-45
2022/06/17 10:51:07;;;;;;;6.20;3.08;;;26.30;47.10;;;;;;4942837;28;20098;-46
2022/06/17 10:53:41;;;;;;;7.47;2.72;;;26.40;46.30;;;;;;4948512;28;20412;-44
2022/06/17 10:56:17;;;;;;;5.72;2.88;;;26.50;46.80;;;;;;4967024;28;20397;-45
2022/06/17 10:59:06;;;;;;;5.85;2.53;;;26.40;45.60;;;;;;4964501;28;20496;-48
2022/06/17 11:01:47;;;;;;;4.20;2.55;;;26.40;47.00;;;;;;4944266;28;20082;-48
2022/06/17 11:04:19;;;;;;;5.30;2.40;;;26.60;46.80;;;;;;4964298;28;20043;-46
2022/06/17 11:07:11;;;;;;;;;;;26.80;46.00;;;;;;4965952;28;20624;-45
2022/06/17 11:09:48;;;;;;;4.53;2.80;;;26.90;45.20;;;;;;4960341;28;20071;-45
2022/06/17 11:12:21;;;;;;;3.97;2.25;;;26.90;46.30;;;;;;4963051;28;20062;-45
2022/06/17 11:14:47;;;;;;;4.75;2.47;;;26.80;45.10;;;;;;4965930;28;20059;-40
2022/06/17 11:17:19;;;;;;;6.68;3.00;;;26.80;45.20;;;;;;4963967;28;20054;-40
2022/06/17 11:19:50;;;;;;;3.30;2.38;;;26.80;44.70;;;;;;4964512;28;20043;-40
2022/06/17 11:22:35;;;;;;;5.65;2.97;;;26.80;45.50;;;;;;4964580;28;20489;-41
2022/06/17 11:25:19;;;;;;;8.70;3.05;;;26.80;45.20;;;;;;4964405;28;20369;-41
2022/06/17 11:27:54;;;;;;;3.88;2.80;;;26.90;44.30;;;;;;4964965;28;20567;-40
2022/06/17 11:30:24;;;;;;;4.63;2.92;;;26.90;44.70;;;;;;4965440;28;20078;-40
2022/06/17 11:32:51;;;;;;;7.07;3.28;;;26.90;44.70;;;;;;4965875;28;20125;-40
2022/06/17 11:35:31;;;;;;;5.18;2.72;;;27.00;44.70;;;;;;4960425;28;20038;-41
2022/06/17 11:37:58;;;;;;;3.97;2.63;;;27.00;44.30;;;;;;4966815;28;20039;-41
2022/06/17 11:40:27;;;;;;;5.00;2.28;;;27.10;44.00;;;;;;4964190;28;20081;-44
2022/06/17 11:43:00;;;;;;;4.38;2.75;;;27.20;44.40;;;;;;4963231;28;20054;-43
2022/06/17 11:45:42;;;;;;;4.82;2.40;;;27.20;44.10;;;;;;4964051;28;20090;-40
2022/06/17 11:48:20;;;;;;;6.80;4.18;;;27.30;43.10;;;;;;4964288;28;20492;-44
2022/06/17 11:51:25;;;;;;;3.78;2.45;;;27.30;43.40;;;;;;4963028;28;20495;-41
2022/06/17 11:53:54;;;;;;;11.23;3.28;;;27.40;43.60;;;;;;4925353;29;20514;-40
2022/06/17 11:56:47;;;;;;;6.30;2.70;;;27.40;42.90;;;;;;4956969;28;20189;-41
2022/06/17 11:59:19;;;;;;;7.82;2.88;;;27.50;42.60;;;;;;4963491;28;20051;-41
2022/06/17 12:01:55;;;;;;;6.93;2.50;;;27.50;42.60;;;;;;4965607;28;20469;-41
2022/06/17 12:04:54;;;;;;;4.82;2.40;;;27.70;43.10;;;;;;4957374;28;20449;-42
2022/06/17 12:07:26;;;;;;;8.07;2.70;;;27.80;42.10;;;;;;4964620;28;20499;-42
2022/06/17 12:10:16;;;;;;;7.28;2.80;;;28.00;42.40;;;;;;4964618;28;20538;-43
2022/06/17 12:12:43;;;;;;;5.93;2.25;;;28.10;40.80;;;;;;4952610;28;20059;-44
2022/06/17 12:15:19;;;;;;;6.40;2.40;;;28.00;41.80;;;;;;4965563;28;20062;-41
2022/06/17 12:17:46;;;;;;;5.90;2.60;;;27.90;42.90;;;;;;4972800;28;20042;-42
2022/06/17 12:20:38;;;;;;;7.10;2.75;;;27.90;42.00;;;;;;4969250;28;20035;-41
2022/06/17 12:23:25;;;;;;;3.60;2.50;;;27.90;41.20;;;;;;4967159;28;20522;-39
2022/06/17 12:26:00;;;;;;;6.53;2.97;;;27.80;41.40;;;;;;4970005;28;20038;-44
2022/06/17 12:28:34;;;;;;;6.53;2.83;;;27.80;41.70;;;;;;4968527;28;20039;-41
2022/06/17 12:31:27;;;;;;;4.07;2.20;;;27.70;40.80;;;;;;4967413;28;20080;-41
2022/06/17 12:34:06;;;;;;;9.82;2.60;;;27.80;40.60;;;;;;4962099;28;20042;-41
2022/06/17 12:36:56;;;;;;;9.38;3.15;;;28.00;41.70;;;;;;4972127;28;20097;-40
2022/06/17 12:39:37;;;;;;;4.70;3.08;;;28.20;41.40;;;;;;4959422;28;20520;-43
2022/06/17 12:42:03;;;;;;;4.95;2.25;;;28.40;40.70;;;;;;4965729;28;20150;-41
2022/06/17 12:44:54;;;;;;;9.80;2.58;;;28.50;40.20;;;;;;4974033;28;20552;-43
2022/06/17 12:47:49;;;;;;;9.10;2.50;;;28.70;39.20;;;;;;4971677;28;20126;-40
2022/06/17 12:53:33;;;;;;;5.47;2.33;;;29.00;39.60;;;;;;4966623;28;20043;-41
2022/06/17 12:56:25;;;;;;;7.60;2.25;;;29.20;39.10;;;;;;4951163;28;20089;-41
2022/06/17 12:58:59;;;;;;;4.75;2.30;;;29.40;38.60;;;;;;4965435;28;20038;-41
2022/06/17 13:01:37;;;;;;;6.85;2.28;;;29.50;37.90;;;;;;4965776;28;20043;-41
2022/06/17 13:04:23;;;;;;;3.92;1.95;;;29.20;38.40;;;;;;4965674;28;20035;-40
2022/06/17 13:06:58;;;;;;;4.15;1.88;;;29.10;38.40;;;;;;4970035;28;20047;-41
2022/06/17 13:09:57;;;;;;;7.78;2.40;;;29.10;38.80;;;;;;4970556;28;20445;-40
2022/06/17 13:12:39;;;;;;;4.10;2.28;;;29.20;39.20;;;;;;4969353;28;20388;-40
2022/06/17 13:15:17;;;;;;;4.05;1.75;;;29.40;38.80;;;;;;4969027;28;20533;-41
2022/06/17 13:17:59;;;;;;;3.45;2.03;;;29.60;38.30;;;;;;4964390;28;20117;-43
2022/06/17 13:20:38;;;;;;;8.93;2.00;;;29.70;37.10;;;;;;4967561;28;20544;-44
2022/06/17 13:23:28;;;;;;;4.28;2.50;;;29.80;37.60;;;;;;4967094;28;20042;-43
2022/06/17 13:26:19;;;;;;;6.43;1.83;;;29.90;36.60;;;;;;4964246;28;20049;-44
2022/06/17 13:29:02;;;;;;;4.15;1.85;;;29.80;35.90;;;;;;4960438;28;20543;-42
2022/06/17 13:31:37;;;;;;;4.45;2.10;;;29.80;36.00;;;;;;4966659;28;20043;-41